Burbank, California
Current Conditions -  °F | °C
As of 7:53 AM on Thursday 30 Oct 2014 (Local Time) from KBUR Reporting Station
Clear Clear  
Wind Chill: 60°   Ceiling: Unl
Heat Index: 60°   Visibility: 10mi
Dew Point: 40°   Wind: 3mph
Humidity: 47%   Direction: 290°WNW
Pressure: 29.99"   Gusts: NA
Location:  34.18°N, 118.3°W
Report Text: KBUR 301453Z 29003KT 10SM CLR 16/04 A2999 RMK AO2 SLP144 T01560044 53001
Loading
Personal Weather Stations






























Interactive Weather Map New forecast layout! Learn more

10-Day Weather Forecast

Advertisements
Track Severe Weather on mobile